Time;durP1;ratioP1;P1;durP2;ratioP2;P2;SDS_P1;SDS_P2;PMS_P1;PMS_P2;Temp;Humidity;BMP_temperature;BMP_pressure;BME280_temperature;BME280_humidity;BME280_pressure;Samples;Min_cycle;Max_cycle;Signal;HPM_P1;HPM_P2
2021/10/05 00:01:08;;;;;;;18.33;16.52;;;12.60;99.90;;;;;;5054179;28;20025;-73
2021/10/05 00:03:33;;;;;;;17.13;15.40;;;12.60;99.90;;;;;;5071710;28;20025;-74
2021/10/05 00:05:59;;;;;;;18.15;16.42;;;12.50;99.90;;;;;;5070838;28;20029;-74
2021/10/05 00:08:25;;;;;;;18.60;16.75;;;12.60;99.90;;;;;;5071993;28;20029;-74
2021/10/05 00:10:51;;;;;;;18.13;16.33;;;12.60;99.90;;;;;;5071569;28;20032;-75
2021/10/05 00:13:17;;;;;;;17.63;15.82;;;12.60;99.90;;;;;;5051980;28;20024;-74
2021/10/05 00:15:43;;;;;;;19.45;17.45;;;12.60;99.90;;;;;;5061636;28;20017;-74
2021/10/05 00:18:09;;;;;;;18.55;16.73;;;12.50;99.90;;;;;;5067315;28;20025;-73
2021/10/05 00:20:34;;;;;;;17.92;16.23;;;12.50;99.90;;;;;;5052326;28;20029;-74
2021/10/05 00:23:00;;;;;;;18.00;16.30;;;12.50;99.90;;;;;;5068733;28;20053;-72
2021/10/05 00:25:26;;;;;;;19.27;17.23;;;12.50;99.90;;;;;;5065456;28;20032;-73
2021/10/05 00:27:51;;;;;;;18.98;17.08;;;12.50;99.90;;;;;;5069073;28;20036;-72
2021/10/05 00:30:17;;;;;;;17.83;15.63;;;12.50;99.90;;;;;;5070222;28;20028;-73
2021/10/05 00:32:43;;;;;;;17.70;15.90;;;12.50;99.90;;;;;;5048193;28;20116;-74
2021/10/05 00:35:08;;;;;;;17.60;15.82;;;12.70;99.90;;;;;;5064379;28;20108;-74
2021/10/05 00:37:34;;;;;;;17.15;15.05;;;12.80;99.90;;;;;;5072203;28;20017;-73
2021/10/05 00:40:00;;;;;;;17.17;15.40;;;12.80;99.90;;;;;;5072653;28;20078;-73
2021/10/05 00:42:25;;;;;;;18.23;16.38;;;12.80;99.90;;;;;;5073295;28;20488;-72
2021/10/05 00:44:51;;;;;;;17.75;15.82;;;12.80;99.90;;;;;;5074254;28;20120;-72
2021/10/05 00:47:17;;;;;;;18.20;16.25;;;12.70;99.90;;;;;;5075870;28;20059;-72
2021/10/05 00:49:46;;;;;;;18.30;16.33;;;12.80;99.90;;;;;;5091529;28;20032;-71
2021/10/05 00:52:14;;;;;;;19.73;16.63;;;12.80;99.90;;;;;;5092164;28;20055;-72
2021/10/05 00:54:41;;;;;;;18.05;15.63;;;12.80;99.90;;;;;;5087694;28;20016;-72
2021/10/05 00:57:08;;;;;;;19.17;17.17;;;12.80;99.90;;;;;;5085044;28;20063;-73
2021/10/05 00:59:34;;;;;;;20.65;18.08;;;12.80;99.90;;;;;;5075560;28;20021;-73
2021/10/05 01:02:09;;;;;;;19.80;17.70;;;12.80;99.90;;;;;;5074129;28;20033;-75
2021/10/05 01:04:35;;;;;;;20.65;17.77;;;12.70;99.90;;;;;;5077130;28;20111;-74
2021/10/05 01:07:08;;;;;;;20.20;17.48;;;12.70;99.90;;;;;;5085703;28;20032;-75
2021/10/05 01:09:35;;;;;;;19.27;17.17;;;12.60;99.90;;;;;;5089430;28;20029;-74
2021/10/05 01:12:01;;;;;;;19.83;17.73;;;12.60;99.90;;;;;;5073718;28;20021;-77
2021/10/05 01:14:27;;;;;;;19.38;17.27;;;12.60;99.90;;;;;;5073393;28;20393;-74
2021/10/05 01:16:55;;;;;;;20.40;17.38;;;12.70;99.90;;;;;;5074189;28;20036;-74
2021/10/05 01:19:21;;;;;;;20.88;18.10;;;12.80;99.90;;;;;;5071120;28;20029;-74
2021/10/05 01:21:47;;;;;;;18.92;17.00;;;12.70;99.90;;;;;;5071015;28;20033;-74
2021/10/05 01:24:18;;;;;;;21.95;18.52;;;12.70;99.90;;;;;;5063385;28;20030;-75
2021/10/05 01:26:44;;;;;;;23.98;18.00;;;12.60;99.90;;;;;;5071503;28;20378;-76
2021/10/05 01:29:15;;;;;;;20.02;17.88;;;12.50;99.90;;;;;;5069839;28;20054;-74
2021/10/05 01:31:43;;;;;;;19.25;17.17;;;12.50;99.90;;;;;;5071998;28;20019;-76
2021/10/05 01:34:09;;;;;;;20.55;17.80;;;12.60;99.90;;;;;;5073324;28;20138;-77
2021/10/05 01:36:35;;;;;;;21.92;18.52;;;12.50;99.90;;;;;;5074060;28;20059;-74
2021/10/05 01:39:06;;;;;;;20.48;17.42;;;12.40;99.90;;;;;;5073962;28;20013;-74
2021/10/05 01:41:32;;;;;;;20.95;17.17;;;12.40;99.90;;;;;;5073969;28;20101;-73
2021/10/05 01:43:58;;;;;;;21.08;17.70;;;12.50;99.90;;;;;;5071859;28;20025;-73
2021/10/05 01:46:24;;;;;;;19.92;17.85;;;12.40;99.90;;;;;;5054458;28;20101;-72
2021/10/05 01:48:49;;;;;;;25.77;18.77;;;12.40;99.90;;;;;;5071792;28;20047;-72
2021/10/05 01:51:15;;;;;;;21.95;17.95;;;12.40;99.90;;;;;;5071378;28;20024;-72
2021/10/05 01:53:41;;;;;;;18.85;16.95;;;12.40;99.90;;;;;;5070702;28;20316;-73
2021/10/05 01:56:07;;;;;;;20.45;18.23;;;12.40;99.90;;;;;;5052330;28;20111;-73
2021/10/05 01:58:33;;;;;;;19.17;16.77;;;12.40;99.90;;;;;;5072042;28;20021;-72
2021/10/05 02:00:59;;;;;;;20.40;17.48;;;12.40;99.90;;;;;;5071683;28;20044;-74
2021/10/05 02:03:25;;;;;;;22.85;18.77;;;12.40;99.90;;;;;;5067802;28;20392;-76
2021/10/05 02:05:50;;;;;;;23.15;18.40;;;12.40;99.90;;;;;;5078355;28;20036;-76
2021/10/05 02:08:17;;;;;;;20.55;18.20;;;12.40;99.90;;;;;;5073159;28;20373;-76
2021/10/05 02:10:43;;;;;;;21.33;18.98;;;12.40;99.90;;;;;;5072354;28;20507;-76
2021/10/05 02:13:09;;;;;;;20.25;17.63;;;12.40;99.90;;;;;;5073355;28;20021;-76
2021/10/05 02:15:38;;;;;;;20.17;17.70;;;12.30;99.90;;;;;;5073339;28;20016;-78
2021/10/05 02:18:05;;;;;;;21.20;18.42;;;12.40;99.90;;;;;;5055350;28;20042;-76
2021/10/05 02:20:31;;;;;;;22.80;19.63;;;12.30;99.90;;;;;;5073425;28;20028;-75
2021/10/05 02:22:58;;;;;;;20.52;18.33;;;12.30;99.90;;;;;;5055378;28;20137;-76
2021/10/05 02:25:24;;;;;;;21.52;17.92;;;12.30;99.90;;;;;;5082363;28;20069;-76
2021/10/05 02:27:50;;;;;;;21.73;18.90;;;12.40;99.90;;;;;;5084325;28;20052;-76
2021/10/05 02:30:15;;;;;;;23.98;18.70;;;12.30;99.90;;;;;;5081469;28;20447;-76
2021/10/05 02:32:41;;;;;;;22.48;19.80;;;12.30;99.90;;;;;;5089135;28;20034;-76
2021/10/05 02:35:09;;;;;;;25.65;19.50;;;12.40;99.90;;;;;;5055110;28;20077;-76
2021/10/05 02:37:34;;;;;;;23.55;18.23;;;12.40;99.90;;;;;;5072359;28;20358;-76
2021/10/05 02:40:07;;;;;;;24.83;18.30;;;12.40;99.90;;;;;;5075427;28;20098;-77
2021/10/05 02:42:35;;;;;;;22.25;19.38;;;12.40;99.90;;;;;;5072917;28;20032;-77
2021/10/05 02:45:00;;;;;;;22.00;18.77;;;12.40;99.90;;;;;;5072971;28;20035;-76
2021/10/05 02:47:26;;;;;;;21.63;17.90;;;12.40;99.90;;;;;;5072919;28;20024;-76
2021/10/05 02:49:52;;;;;;;29.13;17.98;;;12.40;99.90;;;;;;5078286;28;20036;-77
2021/10/05 02:52:20;;;;;;;21.67;17.48;;;12.40;99.90;;;;;;5060774;28;20031;-77
2021/10/05 02:54:47;;;;;;;20.48;17.92;;;12.40;99.90;;;;;;5064211;28;20044;-77
2021/10/05 02:57:14;;;;;;;21.05;17.30;;;12.40;99.90;;;;;;5080576;28;20479;-77
2021/10/05 02:59:39;;;;;;;19.73;16.88;;;12.40;99.90;;;;;;5071991;28;20044;-77
2021/10/05 03:02:05;;;;;;;21.75;18.30;;;12.30;99.90;;;;;;5072212;28;20024;-76
2021/10/05 03:04:31;;;;;;;23.35;18.70;;;12.40;99.90;;;;;;5080553;28;20027;-76
2021/10/05 03:06:57;;;;;;;22.63;19.23;;;12.40;99.90;;;;;;5070205;28;20008;-76
2021/10/05 03:09:23;;;;;;;21.88;18.08;;;12.40;99.90;;;;;;5082806;28;20043;-77
2021/10/05 03:11:49;;;;;;;21.42;17.67;;;12.40;99.90;;;;;;5090509;28;20028;-76
2021/10/05 03:14:15;;;;;;;20.85;17.75;;;12.40;99.90;;;;;;5090744;28;20031;-76
2021/10/05 03:16:43;;;;;;;21.98;18.88;;;12.40;99.90;;;;;;5071624;28;20032;-76
2021/10/05 03:19:09;;;;;;;21.73;18.10;;;12.30;99.90;;;;;;5073991;28;20028;-77
2021/10/05 03:21:35;;;;;;;22.73;19.13;;;12.30;99.90;;;;;;5055497;28;20017;-77
2021/10/05 03:24:01;;;;;;;23.75;20.00;;;12.40;99.90;;;;;;5055581;28;20029;-78
2021/10/05 03:26:27;;;;;;;21.75;17.52;;;12.30;99.90;;;;;;5073636;28;20031;-77
2021/10/05 03:28:52;;;;;;;19.92;17.52;;;12.40;99.90;;;;;;5074087;28;20021;-76
2021/10/05 03:31:18;;;;;;;19.20;16.52;;;12.30;99.90;;;;;;5054686;28;20488;-76
2021/10/05 03:33:45;;;;;;;22.98;17.40;;;12.30;99.90;;;;;;5054756;28;20444;-77
2021/10/05 03:36:13;;;;;;;20.25;17.05;;;12.30;99.90;;;;;;5047333;28;20028;-78
2021/10/05 03:38:39;;;;;;;18.92;16.90;;;12.40;99.90;;;;;;5063461;28;20528;-77
2021/10/05 03:41:06;;;;;;;20.58;17.42;;;12.30;99.90;;;;;;5071284;28;20028;-77
2021/10/05 03:43:32;;;;;;;22.70;18.95;;;12.30;99.90;;;;;;5053213;28;20036;-77
2021/10/05 03:45:58;;;;;;;19.20;17.08;;;12.20;99.90;;;;;;5072740;28;20060;-77
2021/10/05 03:48:24;;;;;;;19.50;16.95;;;12.20;99.90;;;;;;5071740;28;20032;-77
2021/10/05 03:50:50;;;;;;;18.25;15.93;;;12.20;99.90;;;;;;5045834;28;20028;-76
2021/10/05 03:53:18;;;;;;;22.42;17.23;;;12.20;99.90;;;;;;5053386;28;20017;-77
2021/10/05 03:55:53;;;;;;;17.42;15.10;;;12.20;99.90;;;;;;5071804;28;20047;-77
2021/10/05 03:58:20;;;;;;;19.88;15.80;;;12.30;99.90;;;;;;5071706;28;20059;-78
2021/10/05 04:00:47;;;;;;;17.70;15.13;;;12.30;99.90;;;;;;5071907;28;20144;-77
2021/10/05 04:03:13;;;;;;;20.08;16.42;;;12.30;99.90;;;;;;5071881;28;20480;-77
2021/10/05 04:05:39;;;;;;;15.48;13.85;;;12.30;99.90;;;;;;5073925;28;20023;-77
2021/10/05 04:08:05;;;;;;;16.73;14.32;;;12.30;99.90;;;;;;5096323;28;20020;-76
2021/10/05 04:10:31;;;;;;;16.77;14.50;;;12.30;99.90;;;;;;5094830;28;20044;-77
2021/10/05 04:12:57;;;;;;;19.33;15.07;;;12.30;99.90;;;;;;5081700;28;20199;-76
2021/10/05 04:15:23;;;;;;;16.42;14.43;;;12.30;99.90;;;;;;5094377;28;20033;-76
2021/10/05 04:17:49;;;;;;;13.65;12.25;;;12.30;99.90;;;;;;5054371;28;21080;-75
2021/10/05 04:20:14;;;;;;;14.65;13.13;;;12.30;99.90;;;;;;5076021;28;20021;-77
2021/10/05 04:22:40;;;;;;;15.50;13.88;;;12.20;99.90;;;;;;5075304;28;20025;-76
2021/10/05 04:25:07;;;;;;;14.63;12.52;;;12.20;99.90;;;;;;5075910;28;20024;-79
2021/10/05 04:27:33;;;;;;;14.30;12.80;;;12.30;99.90;;;;;;5051426;28;20086;-76
2021/10/05 04:29:59;;;;;;;13.82;12.25;;;12.30;99.90;;;;;;5074899;28;20028;-77
2021/10/05 04:32:25;;;;;;;14.38;12.88;;;12.20;99.90;;;;;;5074909;28;20025;-77
2021/10/05 04:34:51;;;;;;;13.82;12.02;;;12.30;99.90;;;;;;5075057;28;20075;-75
2021/10/05 04:37:16;;;;;;;15.00;13.38;;;12.20;99.90;;;;;;5075498;28;20031;-76
2021/10/05 04:39:42;;;;;;;13.80;11.93;;;12.20;99.90;;;;;;5076440;28;20171;-76
2021/10/05 04:42:08;;;;;;;13.80;12.40;;;12.20;99.90;;;;;;5057280;28;20134;-76
2021/10/05 04:44:34;;;;;;;13.82;12.38;;;12.20;99.90;;;;;;5057885;28;20047;-77
2021/10/05 04:46:59;;;;;;;14.52;12.60;;;12.30;99.90;;;;;;5075728;28;20040;-76
2021/10/05 04:49:25;;;;;;;13.75;12.25;;;12.60;99.90;;;;;;5057240;28;20052;-76
2021/10/05 04:51:51;;;;;;;13.57;12.18;;;12.50;99.90;;;;;;5058165;28;20066;-76
2021/10/05 04:54:16;;;;;;;14.60;13.00;;;12.40;99.90;;;;;;5058095;28;20028;-77
2021/10/05 04:56:42;;;;;;;14.35;12.85;;;12.30;99.90;;;;;;5076059;28;20051;-77
2021/10/05 04:59:08;;;;;;;13.80;12.40;;;12.30;99.90;;;;;;5075473;28;20025;-75
2021/10/05 05:01:33;;;;;;;14.32;12.82;;;12.30;99.90;;;;;;5075571;28;20021;-76
2021/10/05 05:03:59;;;;;;;14.98;12.68;;;12.30;99.90;;;;;;5051084;28;20059;-76
2021/10/05 05:06:24;;;;;;;15.13;12.55;;;12.20;99.90;;;;;;5054990;28;20092;-76
2021/10/05 05:08:50;;;;;;;15.43;13.50;;;12.20;99.90;;;;;;5068505;28;20024;-76
2021/10/05 05:11:15;;;;;;;13.98;12.45;;;12.20;99.90;;;;;;5075075;28;20028;-76
2021/10/05 05:13:41;;;;;;;13.25;11.82;;;12.20;99.90;;;;;;5056906;28;20028;-77
2021/10/05 05:16:06;;;;;;;15.10;12.40;;;12.20;99.90;;;;;;5056713;28;20016;-77
2021/10/05 05:18:32;;;;;;;13.75;12.25;;;12.20;99.90;;;;;;5088800;28;20055;-76
2021/10/05 05:20:57;;;;;;;17.02;13.40;;;12.20;99.90;;;;;;5097054;28;20035;-76
2021/10/05 05:23:23;;;;;;;15.05;12.88;;;12.20;99.90;;;;;;5094659;28;20028;-78
2021/10/05 05:25:49;;;;;;;16.70;12.70;;;12.30;99.90;;;;;;5070267;28;20040;-76
2021/10/05 05:28:14;;;;;;;15.60;13.30;;;12.20;99.90;;;;;;5079105;28;20020;-77
2021/10/05 05:30:41;;;;;;;15.57;13.88;;;12.20;99.90;;;;;;5091421;28;20036;-77
2021/10/05 05:33:06;;;;;;;15.05;13.45;;;12.20;99.90;;;;;;5083270;28;20029;-76
2021/10/05 05:35:32;;;;;;;14.35;12.63;;;12.20;99.90;;;;;;5077259;28;20032;-76
2021/10/05 05:37:58;;;;;;;16.85;14.50;;;12.10;99.90;;;;;;5078064;28;20043;-77
2021/10/05 05:40:23;;;;;;;17.08;14.38;;;12.20;99.90;;;;;;5077850;28;20422;-77
2021/10/05 05:42:50;;;;;;;15.30;13.40;;;12.20;99.90;;;;;;5077929;28;20032;-76
2021/10/05 05:45:16;;;;;;;15.82;13.45;;;12.20;99.90;;;;;;5077571;28;20028;-77
2021/10/05 05:47:41;;;;;;;15.30;12.93;;;12.20;99.90;;;;;;5077525;28;20460;-76
2021/10/05 05:50:08;;;;;;;17.42;13.25;;;12.20;99.90;;;;;;5053328;28;20044;-77
2021/10/05 05:52:34;;;;;;;15.77;12.98;;;12.20;99.90;;;;;;5104845;22;20043;-73
2021/10/05 05:55:00;;;;;;;17.80;14.00;;;12.20;99.90;;;;;;5117894;28;20513;-73
2021/10/05 05:57:26;;;;;;;18.38;14.20;;;12.20;99.90;;;;;;5117665;28;20016;-73
2021/10/05 05:59:51;;;;;;;14.77;13.15;;;12.20;99.90;;;;;;5117526;28;20023;-73
2021/10/05 06:02:17;;;;;;;16.13;13.13;;;12.20;99.90;;;;;;5117918;28;20509;-73
2021/10/05 06:04:43;;;;;;;14.85;13.25;;;12.20;99.90;;;;;;5117157;28;20043;-74
2021/10/05 06:07:10;;;;;;;16.25;13.38;;;12.20;99.90;;;;;;5118025;28;20028;-74
2021/10/05 06:09:36;;;;;;;19.75;14.98;;;12.30;99.90;;;;;;5117136;28;20069;-74
2021/10/05 06:12:05;;;;;;;16.63;13.90;;;12.30;99.90;;;;;;5117036;28;20024;-73
2021/10/05 06:14:30;;;;;;;19.25;14.77;;;12.30;99.90;;;;;;5117988;28;20062;-73
2021/10/05 06:16:58;;;;;;;18.95;14.52;;;12.30;99.90;;;;;;5116513;28;20024;-73
2021/10/05 06:19:24;;;;;;;17.40;13.60;;;12.30;99.90;;;;;;5118541;27;20020;-74
2021/10/05 06:21:50;;;;;;;17.17;13.98;;;12.40;99.90;;;;;;5114920;28;20039;-74
2021/10/05 06:24:16;;;;;;;18.45;14.18;;;12.40;99.90;;;;;;5115554;28;20031;-73
2021/10/05 06:26:41;;;;;;;18.45;14.13;;;12.50;99.90;;;;;;5118609;28;20502;-74
2021/10/05 06:29:07;;;;;;;15.40;13.48;;;12.50;99.90;;;;;;5116292;28;20027;-73
2021/10/05 06:31:33;;;;;;;14.77;12.48;;;12.50;99.90;;;;;;5116486;28;20413;-73
2021/10/05 06:33:58;;;;;;;14.80;12.35;;;12.60;99.90;;;;;;5117057;28;20024;-74
2021/10/05 06:36:24;;;;;;;14.65;13.05;;;12.60;99.90;;;;;;5116263;28;20081;-72
2021/10/05 06:38:51;;;;;;;14.90;12.00;;;12.70;99.90;;;;;;5116528;28;20156;-71
2021/10/05 06:41:16;;;;;;;14.23;12.73;;;12.80;99.90;;;;;;5113452;28;20025;-73
2021/10/05 06:43:42;;;;;;;13.63;12.15;;;12.90;99.90;;;;;;5083116;28;20030;-72
2021/10/05 06:46:08;;;;;;;13.63;12.23;;;12.90;99.90;;;;;;5114798;28;20039;-72
2021/10/05 06:48:34;;;;;;;15.75;13.02;;;12.90;99.90;;;;;;5115125;28;20040;-73
2021/10/05 06:50:59;;;;;;;13.25;11.90;;;12.90;99.90;;;;;;5092469;28;20032;-74
2021/10/05 06:53:25;;;;;;;13.15;11.68;;;12.90;99.90;;;;;;5112240;28;20027;-73
2021/10/05 06:55:51;;;;;;;13.70;12.13;;;12.90;99.90;;;;;;5115370;28;20020;-73
2021/10/05 06:58:16;;;;;;;13.65;11.32;;;12.90;99.90;;;;;;5112905;28;20020;-73
2021/10/05 07:00:42;;;;;;;13.10;11.75;;;13.00;99.90;;;;;;5096866;28;20024;-72
2021/10/05 07:03:08;;;;;;;15.32;11.82;;;13.00;99.90;;;;;;5099144;28;20035;-74
2021/10/05 07:05:34;;;;;;;13.35;11.95;;;13.10;99.90;;;;;;5119043;28;20032;-73
2021/10/05 07:08:03;;;;;;;10.95;9.75;;;13.10;99.90;;;;;;5123340;27;20179;-73
2021/10/05 07:10:29;;;;;;;10.45;9.45;;;13.00;99.90;;;;;;5119144;28;20019;-73
2021/10/05 07:12:55;;;;;;;12.85;9.88;;;13.10;99.90;;;;;;5117046;28;20099;-73
2021/10/05 07:15:20;;;;;;;13.48;11.27;;;13.10;99.90;;;;;;5116130;28;20028;-73
2021/10/05 07:17:50;;;;;;;11.57;10.38;;;13.20;99.90;;;;;;5118779;28;20507;-74
2021/10/05 07:20:15;;;;;;;11.55;10.35;;;13.40;99.90;;;;;;5118952;28;20069;-74
2021/10/05 07:22:41;;;;;;;11.52;10.32;;;13.50;99.90;;;;;;5117608;28;20118;-73
2021/10/05 07:25:07;;;;;;;12.52;11.23;;;13.60;99.90;;;;;;5118546;28;20024;-74
2021/10/05 07:27:32;;;;;;;12.80;11.50;;;13.40;99.90;;;;;;5121837;28;20023;-75
2021/10/05 07:29:58;;;;;;;13.05;11.73;;;13.50;99.90;;;;;;5120239;28;20031;-74
2021/10/05 07:32:24;;;;;;;15.13;13.52;;;13.50;99.90;;;;;;5101450;28;20031;-74
2021/10/05 07:34:49;;;;;;;12.48;11.10;;;13.60;99.90;;;;;;5104420;28;20027;-74
2021/10/05 07:37:15;;;;;;;12.63;10.98;;;13.50;99.90;;;;;;5120224;28;20511;-74
2021/10/05 07:39:41;;;;;;;13.40;11.32;;;13.50;99.90;;;;;;5113614;28;20035;-73
2021/10/05 07:42:06;;;;;;;11.13;9.90;;;13.40;99.90;;;;;;5113509;28;20034;-74
2021/10/05 07:44:33;;;;;;;10.55;9.52;;;13.50;99.90;;;;;;5115882;28;20031;-74
2021/10/05 07:46:59;;;;;;;11.77;10.50;;;13.70;99.90;;;;;;5107078;28;20051;-73
2021/10/05 07:49:25;;;;;;;14.45;11.15;;;13.70;99.90;;;;;;5121817;28;20039;-73
2021/10/05 07:51:52;;;;;;;14.32;10.77;;;13.70;99.90;;;;;;5135573;28;20039;-74
2021/10/05 07:54:17;;;;;;;10.73;9.63;;;13.60;99.90;;;;;;5121382;28;20510;-73
2021/10/05 07:56:43;;;;;;;12.35;10.23;;;13.70;99.90;;;;;;5103238;28;20046;-73
2021/10/05 07:59:09;;;;;;;12.23;10.38;;;13.80;99.90;;;;;;5126063;28;20020;-73
2021/10/05 08:01:37;;;;;;;10.50;9.02;;;13.70;99.90;;;;;;5108501;28;20023;-75
2021/10/05 08:04:04;;;;;;;9.57;8.57;;;13.80;99.90;;;;;;5121034;28;20027;-72
2021/10/05 08:06:30;;;;;;;11.18;8.70;;;13.90;99.90;;;;;;5129605;28;20053;-75
2021/10/05 08:08:56;;;;;;;13.40;9.65;;;13.90;99.90;;;;;;5103704;28;20023;-73
2021/10/05 08:11:23;;;;;;;14.10;9.90;;;14.20;99.90;;;;;;5106925;28;20020;-74
2021/10/05 08:13:49;;;;;;;13.05;9.07;;;14.40;99.90;;;;;;5117188;27;20023;-73
2021/10/05 08:16:15;;;;;;;11.05;8.45;;;14.40;99.90;;;;;;5132725;27;20030;-73
2021/10/05 08:18:40;;;;;;;11.00;8.55;;;14.50;99.90;;;;;;5141722;27;20106;-74
2021/10/05 08:21:06;;;;;;;11.02;9.05;;;14.40;99.90;;;;;;5133417;27;20031;-72
2021/10/05 08:23:31;;;;;;;9.30;8.40;;;14.10;99.90;;;;;;5125817;28;20073;-72
2021/10/05 08:25:57;;;;;;;11.80;9.15;;;14.00;99.90;;;;;;5127961;28;20024;-73
2021/10/05 08:28:23;;;;;;;10.02;8.20;;;14.10;99.90;;;;;;5127919;28;20030;-73
2021/10/05 08:30:49;;;;;;;10.23;9.18;;;14.00;99.90;;;;;;5131237;28;20039;-73
2021/10/05 08:33:15;;;;;;;9.82;8.88;;;13.90;99.90;;;;;;5108088;28;20034;-72
2021/10/05 08:35:40;;;;;;;11.07;9.45;;;13.80;99.90;;;;;;5129135;28;20098;-74
2021/10/05 08:38:06;;;;;;;9.90;8.45;;;13.80;99.90;;;;;;5134670;28;20128;-73
2021/10/05 08:40:33;;;;;;;8.57;6.80;;;13.80;99.90;;;;;;5133195;28;20036;-74
2021/10/05 08:43:00;;;;;;;7.57;6.88;;;13.80;99.90;;;;;;5128945;28;20027;-73
2021/10/05 08:45:26;;;;;;;6.57;5.97;;;13.80;99.90;;;;;;5110565;28;20026;-73
2021/10/05 08:47:52;;;;;;;7.07;6.38;;;13.90;99.90;;;;;;5134710;28;20023;-72
2021/10/05 08:50:19;;;;;;;6.25;5.65;;;14.00;99.90;;;;;;5134949;27;20024;-73
2021/10/05 08:52:45;;;;;;;5.82;5.32;;;14.20;99.90;;;;;;5135433;28;20019;-74
2021/10/05 08:55:11;;;;;;;6.72;6.07;;;14.50;99.90;;;;;;5135378;28;20045;-73
2021/10/05 08:57:37;;;;;;;5.82;5.32;;;14.70;99.90;;;;;;5136118;28;20016;-73
2021/10/05 09:00:05;;;;;;;5.85;5.25;;;14.70;99.90;;;;;;5136551;28;20030;-73
2021/10/05 09:02:43;;;;;;;5.70;5.15;;;14.90;99.90;;;;;;5117513;28;20118;-73
2021/10/05 09:05:12;;;;;;;4.50;4.10;;;15.00;99.90;;;;;;5134307;28;20467;-77
2021/10/05 09:07:46;;;;;;;2.90;2.70;;;15.00;99.90;;;;;;5132827;28;20023;-74
2021/10/05 09:10:14;;;;;;;3.88;3.42;;;14.90;99.90;;;;;;5135770;28;20020;-74
2021/10/05 09:12:40;;;;;;;3.75;3.38;;;15.20;99.90;;;;;;5137180;28;20027;-73
2021/10/05 09:15:10;;;;;;;4.30;3.13;;;14.90;99.90;;;;;;5137547;28;20053;-73
2021/10/05 09:17:36;;;;;;;4.70;3.25;;;14.90;99.90;;;;;;5139652;28;20039;-72
2021/10/05 09:20:13;;;;;;;6.70;3.47;;;14.80;99.90;;;;;;5137306;28;20038;-72
2021/10/05 09:22:39;;;;;;;4.03;3.72;;;14.70;99.90;;;;;;5134323;28;20032;-73
2021/10/05 09:25:10;;;;;;;3.63;3.33;;;14.60;99.90;;;;;;5135845;28;20372;-73
2021/10/05 09:27:48;;;;;;;4.22;3.47;;;14.70;99.90;;;;;;5132048;28;20024;-73
2021/10/05 09:30:17;;;;;;;5.07;3.30;;;14.70;99.90;;;;;;5131740;28;20045;-72
2021/10/05 09:32:55;;;;;;;4.00;3.55;;;14.80;99.90;;;;;;5117481;28;20044;-73
2021/10/05 09:35:21;;;;;;;4.18;3.28;;;14.90;99.90;;;;;;5135853;27;20047;-72
2021/10/05 09:37:46;;;;;;;3.90;3.58;;;14.90;99.90;;;;;;5135122;28;20040;-73
2021/10/05 09:40:13;;;;;;;3.95;3.63;;;14.90;99.90;;;;;;5135716;27;20084;-73
2021/10/05 09:42:44;;;;;;;3.80;3.50;;;15.10;99.90;;;;;;5135845;28;20038;-74
2021/10/05 09:45:13;;;;;;;3.50;3.20;;;15.50;99.90;;;;;;5135684;27;20008;-73
2021/10/05 09:47:46;;;;;;;3.08;2.88;;;15.50;99.90;;;;;;5124193;28;20095;-73
2021/10/05 09:50:22;;;;;;;3.65;3.30;;;15.70;99.90;;;;;;5136496;27;20020;-73
2021/10/05 09:52:49;;;;;;;11.82;3.42;;;16.00;99.90;;;;;;5138532;28;20030;-73
2021/10/05 09:55:19;;;;;;;3.30;3.00;;;15.80;99.90;;;;;;5117419;28;20020;-74
2021/10/05 09:57:45;;;;;;;3.03;2.78;;;15.80;99.90;;;;;;5119326;28;20040;-74
2021/10/05 10:00:13;;;;;;;3.08;2.83;;;15.80;99.90;;;;;;5139128;28;20032;-73
2021/10/05 10:02:40;;;;;;;4.18;3.08;;;15.80;99.90;;;;;;5134475;28;20019;-72
2021/10/05 10:05:08;;;;;;;3.40;2.70;;;15.80;99.90;;;;;;5137668;28;20030;-73
2021/10/05 10:07:42;;;;;;;4.28;3.28;;;16.00;99.90;;;;;;5119499;28;20043;-74
2021/10/05 10:10:12;;;;;;;3.00;2.70;;;16.10;99.90;;;;;;5133449;27;20036;-73
2021/10/05 10:12:45;;;;;;;3.63;3.10;;;16.20;99.90;;;;;;5119514;28;20026;-73
2021/10/05 10:15:11;;;;;;;2.83;2.53;;;16.40;99.90;;;;;;5144147;27;20023;-71
2021/10/05 10:17:37;;;;;;;3.33;2.30;;;16.30;99.90;;;;;;5133745;28;20032;-74
2021/10/05 10:20:04;;;;;;;2.80;2.60;;;16.30;99.90;;;;;;5138125;27;20019;-75
2021/10/05 10:22:41;;;;;;;3.13;2.20;;;16.40;99.90;;;;;;5117856;28;20026;-75
2021/10/05 10:25:28;;;;;;;2.92;2.25;;;16.30;99.90;;;;;;5120995;28;20026;-74
2021/10/05 10:27:58;;;;;;;3.83;2.10;;;16.30;99.90;;;;;;5100610;28;20035;-73
2021/10/05 10:30:24;;;;;;;2.40;2.20;;;16.30;99.90;;;;;;5117405;28;20052;-74
2021/10/05 10:32:57;;;;;;;2.50;1.85;;;16.20;99.90;;;;;;5119966;28;20075;-75
2021/10/05 10:35:24;;;;;;;2.45;2.17;;;16.10;99.90;;;;;;5116860;28;20482;-76
2021/10/05 10:37:52;;;;;;;2.42;1.80;;;16.20;99.90;;;;;;5117317;28;20035;-76
2021/10/05 10:40:20;;;;;;;3.28;1.95;;;16.30;99.90;;;;;;5099013;28;20321;-74
2021/10/05 10:42:46;;;;;;;2.97;2.05;;;16.40;99.90;;;;;;5100180;28;20115;-74
2021/10/05 10:45:11;;;;;;;2.92;2.15;;;16.40;99.90;;;;;;5104794;28;20054;-75
2021/10/05 10:47:42;;;;;;;2.20;2.00;;;16.30;99.90;;;;;;5120235;28;20038;-75
2021/10/05 10:50:09;;;;;;;2.08;1.98;;;16.30;99.90;;;;;;5115025;28;20024;-75
2021/10/05 10:52:42;;;;;;;2.08;1.88;;;16.30;99.90;;;;;;5117309;28;20028;-74
2021/10/05 10:55:10;;;;;;;2.67;1.75;;;16.30;99.90;;;;;;5095674;28;20027;-75
2021/10/05 10:57:39;;;;;;;1.55;1.45;;;16.30;99.90;;;;;;5107916;28;20115;-76
2021/10/05 11:00:16;;;;;;;2.15;1.52;;;16.40;99.90;;;;;;5112682;28;20153;-76
2021/10/05 11:02:47;;;;;;;2.05;1.85;;;16.40;99.90;;;;;;5112386;28;20076;-74
2021/10/05 11:05:16;;;;;;;2.10;1.90;;;16.40;99.90;;;;;;5089476;28;20566;-75
2021/10/05 11:07:42;;;;;;;2.03;1.83;;;16.40;99.90;;;;;;5109154;28;20073;-76
2021/10/05 11:10:08;;;;;;;1.90;1.80;;;16.50;99.90;;;;;;5093304;28;20549;-76
2021/10/05 11:12:39;;;;;;;2.03;1.83;;;16.50;99.90;;;;;;5111899;28;20041;-73
2021/10/05 11:15:06;;;;;;;2.15;1.95;;;16.40;99.90;;;;;;5111332;28;20092;-75
2021/10/05 11:17:33;;;;;;;2.65;2.40;;;16.50;99.90;;;;;;5112736;28;20528;-74
2021/10/05 11:20:09;;;;;;;3.13;1.90;;;16.40;99.90;;;;;;5092164;28;20460;-75
2021/10/05 11:22:38;;;;;;;1.70;1.60;;;16.30;99.90;;;;;;5109638;28;20065;-74
2021/10/05 11:25:04;;;;;;;2.50;1.90;;;16.30;99.90;;;;;;5093891;28;20023;-75
2021/10/05 11:27:29;;;;;;;1.98;1.45;;;16.40;99.90;;;;;;5092378;28;20107;-76
2021/10/05 11:30:00;;;;;;;1.73;1.63;;;16.50;99.90;;;;;;5111464;28;20475;-74
2021/10/05 11:32:28;;;;;;;3.78;1.77;;;16.40;99.90;;;;;;5109157;28;20066;-75
2021/10/05 11:34:53;;;;;;;1.75;1.65;;;16.40;99.90;;;;;;5095471;28;20103;-75
2021/10/05 11:37:21;;;;;;;2.08;1.58;;;16.60;99.90;;;;;;5115224;28;20431;-77
2021/10/05 11:39:48;;;;;;;1.98;1.55;;;16.80;99.90;;;;;;5114666;28;20544;-75
2021/10/05 11:42:19;;;;;;;1.70;1.02;;;16.90;99.90;;;;;;5096630;28;20031;-75
2021/10/05 11:44:51;;;;;;;1.55;1.20;;;16.90;99.90;;;;;;5129891;27;20035;-75
2021/10/05 11:47:19;;;;;;;1.27;1.10;;;16.90;99.90;;;;;;5136874;27;20016;-73
2021/10/05 11:49:49;;;;;;;1.33;1.10;;;16.90;99.90;;;;;;5121438;27;20052;-75
2021/10/05 11:52:20;;;;;;;1.35;1.00;;;17.00;99.90;;;;;;5114121;28;20475;-77
2021/10/05 11:54:48;;;;;;;1.15;1.02;;;17.00;99.90;;;;;;5114816;28;20058;-76
2021/10/05 11:57:16;;;;;;;0.80;0.70;;;17.10;99.90;;;;;;5114085;28;20027;-75
2021/10/05 11:59:43;;;;;;;1.10;0.80;;;17.10;99.90;;;;;;5113970;28;20023;-75
2021/10/05 12:02:15;;;;;;;0.88;0.88;;;17.40;99.90;;;;;;5113880;28;20034;-74
2021/10/05 12:04:43;;;;;;;1.52;0.90;;;17.10;99.90;;;;;;5087820;28;20031;-74
2021/10/05 12:07:27;;;;;;;1.60;0.80;;;16.90;99.90;;;;;;5093667;28;20228;-76
2021/10/05 12:09:58;;;;;;;1.67;1.30;;;16.80;99.90;;;;;;5114654;28;20031;-78
2021/10/05 12:12:28;;;;;;;2.60;1.08;;;17.00;99.90;;;;;;5117829;28;20046;-76
2021/10/05 12:14:55;;;;;;;1.87;0.80;;;17.00;99.90;;;;;;5099482;28;20670;-75
2021/10/05 12:17:22;;;;;;;1.88;1.00;;;17.10;99.90;;;;;;5122693;28;20257;-76
2021/10/05 12:19:55;;;;;;;0.93;0.82;;;17.20;99.90;;;;;;5121368;22;20698;-77
2021/10/05 12:22:29;;;;;;;3.40;0.85;;;17.40;99.90;;;;;;5068744;28;20100;-78
2021/10/05 12:24:57;;;;;;;0.95;0.80;;;17.60;99.90;;;;;;5069835;28;20027;-77
2021/10/05 12:27:25;;;;;;;1.02;0.68;;;17.60;99.90;;;;;;5071140;28;20484;-76
2021/10/05 12:29:50;;;;;;;0.60;0.60;;;17.80;99.90;;;;;;5068871;28;20032;-77
2021/10/05 12:32:16;;;;;;;0.95;0.75;;;17.80;99.90;;;;;;5070700;28;20020;-77